Time;durP1;ratioP1;P1;durP2;ratioP2;P2;SDS_P1;SDS_P2;PMS_P1;PMS_P2;Temp;Humidity;BMP_temperature;BMP_pressure;BME280_temperature;BME280_humidity;BME280_pressure;Samples;Min_cycle;Max_cycle;Signal;HPM_P1;HPM_P2
2022/01/27 00:05:11;;;;;;;4.60;4.10;;;;;;;18.78;45.58;98644.34;6336918;22;20449;-89
2022/01/27 00:07:38;;;;;;;4.87;4.23;;;;;;;17.21;45.64;98381.41;6287683;22;20241;-89
2022/01/27 00:12:56;;;;;;;4.63;3.73;;;;;;;18.79;45.63;98660.50;6315623;22;20189;-90
2022/01/27 00:31:27;;;;;;;5.13;3.80;;;;;;;18.24;45.67;98572.41;6312651;22;20237;-86
2022/01/27 00:33:54;;;;;;;5.30;4.20;;;;;;;18.34;45.78;98561.94;6283084;22;20204;-86
2022/01/27 01:00:40;;;;;;;5.00;3.90;;;;;;;18.53;45.53;98563.94;6302978;22;20285;-84
2022/01/27 01:03:12;;;;;;;4.83;3.90;;;;;;;18.70;45.33;98568.28;6232010;22;20158;-84
2022/01/27 01:16:24;;;;;;;4.20;3.80;;;;;;;18.79;45.46;98594.28;6288406;22;20202;-84
2022/01/27 01:19:01;;;;;;;4.43;3.83;;;;;;;18.78;45.37;98598.53;6262441;22;20605;-85
2022/01/27 01:21:56;;;;;;;4.10;3.57;;;;;;;18.78;45.57;98598.53;6261640;22;20212;-84
2022/01/27 01:57:04;;;;;;;4.00;3.70;;;;;;;17.72;45.82;98417.53;6214119;22;20993;-86
2022/01/27 01:59:31;;;;;;;4.10;3.70;;;;;;;18.50;45.38;98530.66;6225626;22;20163;-87
2022/01/27 02:01:58;;;;;;;4.17;3.77;;;;;;;18.67;45.51;98552.84;6251488;22;20182;-86
2022/01/27 02:04:25;;;;;;;4.07;3.67;;;;;;;18.72;45.75;98559.09;6221551;22;20160;-86
2022/01/27 02:07:01;;;;;;;4.70;3.83;;;;;;;18.82;45.49;98585.16;6220119;22;20176;-86
2022/01/27 02:20:10;;;;;;;3.97;3.57;;;;;;;18.67;45.43;98568.13;6228800;22;20234;-86
2022/01/27 02:22:37;;;;;;;4.33;3.93;;;;;;;18.20;45.66;98492.44;6195219;22;20550;-86
2022/01/27 02:25:04;;;;;;;4.40;4.00;;;;;;;18.36;45.50;98508.59;6195683;22;20192;-86
2022/01/27 02:27:31;;;;;;;3.80;3.40;;;;;;;18.69;45.58;98556.38;6221732;22;20561;-86
2022/01/27 02:29:58;;;;;;;4.27;3.73;;;;;;;18.74;45.63;98555.81;6196237;22;20202;-86
2022/01/27 02:32:24;;;;;;;4.13;3.73;;;;;;;18.73;45.82;98553.19;6221341;22;20222;-86
2022/01/27 02:34:51;;;;;;;4.23;3.57;;;;;;;18.65;45.61;98531.53;6195924;22;20237;-87
2022/01/27 02:37:18;;;;;;;5.50;4.00;;;;;;;18.81;45.63;98560.50;6196116;22;20175;-87
2022/01/27 02:39:44;;;;;;;4.17;3.77;;;;;;;18.79;45.64;98556.97;6195911;22;20206;-86
2022/01/27 02:42:15;;;;;;;4.73;4.20;;;;;;;18.90;45.60;98577.94;6246444;22;20202;-86
2022/01/27 02:44:45;;;;;;;3.70;3.40;;;;;;;18.88;45.76;98570.22;6246001;22;20191;-86
2022/01/27 02:47:15;;;;;;;5.63;4.03;;;;;;;18.65;45.79;98540.03;6246491;22;20207;-86
2022/01/27 02:49:42;;;;;;;4.13;3.73;;;;;;;18.87;45.82;98565.03;6221185;22;20484;-86
2022/01/27 02:52:09;;;;;;;4.20;3.80;;;;;;;18.60;45.64;98515.09;6272868;22;20250;-86
2022/01/27 02:54:36;;;;;;;4.00;3.60;;;;;;;18.63;45.58;98515.28;6220633;22;20681;-86
2022/01/27 02:57:21;;;;;;;4.07;3.53;;;;;;;18.63;45.63;98518.72;6228668;22;20230;-86
2022/01/27 02:59:47;;;;;;;4.30;3.90;;;;;;;18.86;45.93;98560.75;6196730;22;20220;-86
2022/01/27 03:02:15;;;;;;;4.30;3.90;;;;;;;18.83;45.81;98551.25;6246419;22;20285;-86
2022/01/27 03:04:41;;;;;;;4.13;3.70;;;;;;;18.57;45.75;98503.09;6220670;22;20275;-86
2022/01/27 03:07:08;;;;;;;4.67;3.57;;;;;;;18.82;45.89;98543.50;6221355;22;20172;-86
2022/01/27 03:09:35;;;;;;;3.60;3.30;;;;;;;18.67;45.71;98523.19;6221299;22;20351;-86
2022/01/27 03:12:06;;;;;;;3.83;3.53;;;;;;;18.67;45.69;98515.53;6195891;22;20171;-86
2022/01/27 03:14:33;;;;;;;4.23;3.80;;;;;;;18.63;45.78;98517.81;6244870;22;20199;-86
2022/01/27 03:17:00;;;;;;;3.60;3.30;;;;;;;18.67;45.74;98528.28;6221216;22;20182;-86
2022/01/27 03:19:27;;;;;;;4.30;3.90;;;;;;;18.71;46.08;98550.56;6221267;22;20171;-85
2022/01/27 03:21:54;;;;;;;5.10;4.00;;;;;;;18.64;46.01;98537.41;6221000;22;20223;-86
2022/01/27 03:24:21;;;;;;;6.27;4.47;;;;;;;18.54;45.90;98518.19;6245662;22;20194;-86
2022/01/27 03:26:48;;;;;;;4.40;3.70;;;;;;;18.51;46.11;98520.56;6220816;22;20182;-86
2022/01/27 04:06:41;;;;;;;4.37;3.97;;;;;;;18.46;46.27;98475.25;6214310;23;20211;-86
2022/01/27 04:09:10;;;;;;;4.10;3.70;;;;;;;18.63;46.14;98492.38;6163441;23;20197;-86
2022/01/27 04:11:38;;;;;;;4.00;3.60;;;;;;;18.52;45.81;98465.44;6139206;23;20176;-86
2022/01/27 04:14:05;;;;;;;3.67;3.37;;;;;;;18.66;45.81;98484.91;6138247;23;20184;-87
2022/01/27 04:16:32;;;;;;;4.23;3.83;;;;;;;18.57;45.91;98459.81;6163298;23;20534;-87
2022/01/27 04:18:58;;;;;;;4.00;3.60;;;;;;;18.83;45.68;98502.00;6162740;23;20169;-86
2022/01/27 04:21:25;;;;;;;4.13;3.73;;;;;;;18.58;45.85;98465.75;6188042;23;20434;-86
2022/01/27 04:23:51;;;;;;;3.70;3.40;;;;;;;18.73;45.92;98494.63;6162989;23;20169;-87
2022/01/27 04:26:23;;;;;;;4.20;3.80;;;;;;;18.67;46.31;98482.44;6138153;23;20192;-87
2022/01/27 04:28:51;;;;;;;4.30;3.90;;;;;;;18.79;45.95;98495.84;6164297;23;20165;-86
2022/01/27 04:31:19;;;;;;;3.97;3.57;;;;;;;18.57;45.99;98456.38;6187280;23;20180;-86
2022/01/27 04:33:45;;;;;;;4.40;4.00;;;;;;;18.57;45.93;98464.03;6162759;23;20208;-86
2022/01/27 04:57:55;;;;;;;4.00;3.70;;;;;;;18.40;46.15;98408.75;6244296;22;20209;-86
2022/01/27 05:00:22;;;;;;;5.67;3.63;;;;;;;18.29;45.85;98387.75;6286554;22;20697;-86
2022/01/27 05:02:56;;;;;;;3.80;3.40;;;;;;;18.74;45.96;98461.59;6308960;22;20235;-86
2022/01/27 05:05:22;;;;;;;4.30;3.90;;;;;;;18.50;46.19;98428.84;6285145;22;20186;-84
2022/01/27 05:07:56;;;;;;;3.83;3.53;;;;;;;18.60;46.10;98441.28;6256577;22;20635;-84
2022/01/27 05:10:26;;;;;;;4.13;3.73;;;;;;;18.57;45.94;98431.81;6260113;22;20227;-84
2022/01/27 05:13:00;;;;;;;4.10;3.70;;;;;;;18.57;46.08;98428.38;6257111;22;20186;-84
2022/01/27 05:15:26;;;;;;;3.77;3.47;;;;;;;18.62;46.08;98432.06;6309578;22;20709;-84
2022/01/27 05:17:53;;;;;;;4.17;3.77;;;;;;;18.68;46.12;98434.94;6257900;22;20205;-84
2022/01/27 05:20:19;;;;;;;4.40;4.00;;;;;;;18.78;46.17;98452.47;6257809;22;20178;-84
2022/01/27 05:22:46;;;;;;;4.20;3.80;;;;;;;18.77;45.88;98451.59;6308866;22;20207;-84
2022/01/27 05:25:13;;;;;;;3.80;3.40;;;;;;;18.64;46.00;98433.91;6257249;22;20272;-84
2022/01/27 05:27:39;;;;;;;4.00;3.57;;;;;;;18.58;46.33;98438.66;6336381;22;20249;-84
2022/01/27 05:30:07;;;;;;;4.03;3.63;;;;;;;18.54;46.19;98412.94;6257789;22;20201;-84
2022/01/27 05:32:36;;;;;;;4.33;3.93;;;;;;;18.82;46.17;98455.28;6258075;22;20162;-84
2022/01/27 05:35:03;;;;;;;3.77;3.47;;;;;;;18.60;46.19;98401.44;6279310;22;20197;-83
2022/01/27 05:37:30;;;;;;;4.10;3.70;;;;;;;18.71;46.00;98414.75;6255562;22;20201;-93
2022/01/27 06:01:32;;;;;;;4.33;3.93;;;;;;;16.95;46.31;98130.13;6326025;22;20200;-85
2022/01/27 06:03:58;;;;;;;4.43;4.03;;;;;;;18.55;46.22;98369.75;6256260;22;20192;-86
2022/01/27 06:06:29;;;;;;;4.50;4.10;;;;;;;18.40;46.39;98346.00;6335072;22;20186;-86
2022/01/27 06:08:56;;;;;;;3.80;3.50;;;;;;;18.59;46.01;98368.25;6307812;22;20251;-86
2022/01/27 06:11:23;;;;;;;4.50;3.83;;;;;;;18.81;46.18;98411.88;6282217;22;20170;-86
2022/01/27 06:13:49;;;;;;;4.07;3.67;;;;;;;18.56;46.21;98370.63;6307114;22;20181;-86
2022/01/27 06:16:16;;;;;;;4.40;4.00;;;;;;;18.55;46.21;98371.41;6284134;22;20190;-86
2022/01/27 06:18:43;;;;;;;4.20;3.87;;;;;;;18.74;45.99;98392.00;6256584;22;20235;-86
2022/01/27 06:21:12;;;;;;;4.50;4.10;;;;;;;18.53;46.06;98353.50;6308167;22;20186;-86
2022/01/27 06:23:39;;;;;;;4.10;3.70;;;;;;;18.75;45.83;98386.97;6283589;22;20689;-86
2022/01/27 06:26:05;;;;;;;4.40;4.00;;;;;;;18.78;46.10;98396.44;6283300;22;20225;-85
2022/01/27 06:28:32;;;;;;;4.50;4.07;;;;;;;18.74;45.81;98384.34;6281590;22;20194;-85
2022/01/27 06:30:59;;;;;;;4.60;4.20;;;;;;;18.70;46.25;98379.88;6256846;22;20245;-85
2022/01/27 06:33:25;;;;;;;3.83;3.47;;;;;;;18.58;45.76;98359.72;6258033;22;20174;-86
2022/01/27 06:35:52;;;;;;;4.33;3.93;;;;;;;18.86;46.12;98413.88;6282707;22;20206;-88
2022/01/27 06:38:19;;;;;;;4.03;3.60;;;;;;;18.73;45.95;98393.66;6336374;22;20294;-86
2022/01/27 06:40:45;;;;;;;4.40;4.00;;;;;;;18.09;46.16;98289.13;6282483;22;20225;-86
2022/01/27 06:43:13;;;;;;;5.00;4.50;;;;;;;18.20;46.00;98316.03;6309070;22;20223;-87
2022/01/27 06:45:40;;;;;;;4.47;4.07;;;;;;;18.50;45.94;98370.31;6257372;22;20193;-86
2022/01/27 06:48:06;;;;;;;4.60;4.20;;;;;;;18.81;46.26;98425.50;6282936;22;20170;-86
2022/01/27 06:50:36;;;;;;;5.13;4.63;;;;;;;18.51;46.06;98370.38;6308821;22;20254;-87
2022/01/27 06:53:02;;;;;;;4.40;4.00;;;;;;;18.76;46.02;98420.94;6259799;22;20205;-87
2022/01/27 06:55:29;;;;;;;4.10;3.80;;;;;;;18.39;46.28;98367.19;6257409;22;20186;-86
2022/01/27 06:57:56;;;;;;;4.23;3.83;;;;;;;18.76;45.87;98428.59;6257330;22;20241;-86
2022/01/27 07:00:22;;;;;;;4.23;3.87;;;;;;;18.59;45.91;98401.34;6318286;22;20224;-85
2022/01/27 07:02:49;;;;;;;4.90;4.50;;;;;;;18.85;46.06;98449.44;6283703;22;20158;-85
2022/01/27 07:05:17;;;;;;;4.40;3.80;;;;;;;18.69;46.18;98421.41;6308128;22;20198;-87
2022/01/27 07:07:44;;;;;;;4.37;3.97;;;;;;;18.64;45.97;98418.63;6283540;22;20554;-86
2022/01/27 07:10:11;;;;;;;4.80;4.40;;;;;;;18.60;46.18;98403.97;6283585;22;20253;-87
2022/01/27 07:12:41;;;;;;;5.00;4.50;;;;;;;18.70;46.09;98426.59;6334598;22;20177;-87
2022/01/27 07:15:08;;;;;;;7.67;5.67;;;;;;;18.55;45.67;98397.75;6308250;22;20190;-86
2022/01/27 07:17:35;;;;;;;11.40;10.03;;;;;;;18.54;43.81;98410.41;6308121;22;20181;-87
2022/01/27 07:20:02;;;;;;;13.60;11.30;;;;;;;18.59;42.51;98411.53;6283269;22;20201;-88
2022/01/27 07:22:31;;;;;;;16.47;14.70;;;;;;;18.74;40.69;98435.28;6283179;22;20218;-89
2022/01/27 07:24:58;;;;;;;20.63;16.30;;;;;;;18.63;39.35;98409.25;6309370;22;20190;-88
2022/01/27 07:27:25;;;;;;;21.13;16.73;;;;;;;18.59;38.96;98401.34;6335490;22;20174;-88
2022/01/27 07:29:51;;;;;;;20.07;17.23;;;;;;;18.61;38.25;98412.47;6282650;22;20177;-88
2022/01/27 07:32:18;;;;;;;22.00;18.83;;;;;;;18.50;38.20;98380.50;6283197;22;20197;-86
2022/01/27 07:34:46;;;;;;;21.60;19.07;;;;;;;18.16;38.00;98332.81;6308699;22;20194;-86
2022/01/27 07:37:13;;;;;;;22.50;19.63;;;;;;;18.47;37.91;98403.22;6283351;22;20626;-86
2022/01/27 07:39:39;;;;;;;23.50;19.13;;;;;;;18.70;38.17;98452.06;6283230;22;20206;-86
2022/01/27 07:42:06;;;;;;;26.03;19.53;;;;;;;18.62;38.66;98442.25;6334727;22;20625;-85
2022/01/27 07:44:33;;;;;;;21.60;17.87;;;;;;;18.44;39.38;98409.00;6281817;22;20281;-86
2022/01/27 07:47:00;;;;;;;20.83;16.93;;;;;;;18.45;40.00;98409.88;6308532;22;20177;-87
2022/01/27 07:49:26;;;;;;;18.90;16.47;;;;;;;18.35;40.45;98389.78;6308519;22;20549;-86
2022/01/27 07:51:53;;;;;;;19.33;15.17;;;;;;;18.67;41.38;98449.34;6283614;22;20665;-86
2022/01/27 07:54:19;;;;;;;17.77;15.27;;;;;;;18.39;41.65;98394.28;6283322;22;20202;-86
2022/01/27 07:56:46;;;;;;;17.53;15.07;;;;;;;18.66;41.77;98459.44;6283613;22;20209;-87
2022/01/27 07:59:13;;;;;;;19.20;14.67;;;;;;;18.19;42.10;98371.13;6308455;22;20170;-86
2022/01/27 08:01:39;;;;;;;17.63;14.57;;;;;;;18.43;42.70;98408.91;6282536;22;20801;-86
2022/01/27 08:04:06;;;;;;;15.23;13.60;;;;;;;18.01;43.08;98333.63;6309135;22;20170;-87
2022/01/27 08:06:33;;;;;;;17.17;14.00;;;;;;;18.56;43.15;98421.56;6308635;22;20194;-89
2022/01/27 09:18:26;;;;;;;13.23;9.87;;;;;;;17.85;44.41;98234.38;6272312;22;20246;-84
2022/01/27 09:20:54;;;;;;;13.40;10.70;;;;;;;18.60;44.34;98353.06;6257456;22;20264;-85
2022/01/27 09:23:22;;;;;;;11.50;10.00;;;;;;;18.49;44.78;98331.25;6258090;22;20198;-84
2022/01/27 09:25:49;;;;;;;10.60;9.20;;;;;;;18.72;44.21;98378.28;6258087;22;20221;-85
2022/01/27 09:28:16;;;;;;;12.30;10.30;;;;;;;18.89;44.12;98411.50;6258233;22;20253;-84
2022/01/27 09:30:43;;;;;;;11.30;10.10;;;;;;;18.81;44.03;98405.13;6283681;22;20171;-85
2022/01/27 09:33:10;;;;;;;11.30;10.10;;;;;;;18.70;44.38;98385.84;6281642;22;20181;-85
2022/01/27 09:35:37;;;;;;;14.10;10.00;;;;;;;18.81;44.48;98405.13;6256852;22;20516;-84
2022/01/27 09:38:03;;;;;;;11.60;9.87;;;;;;;18.80;44.29;98402.50;6282342;22;20782;-84
2022/01/27 09:40:30;;;;;;;12.17;9.80;;;;;;;18.84;44.37;98406.97;6257463;22;20167;-84
2022/01/27 09:42:57;;;;;;;11.13;9.70;;;;;;;18.82;44.62;98406.88;6282993;22;20269;-84
2022/01/27 09:45:24;;;;;;;10.30;9.20;;;;;;;18.79;44.23;98403.28;6282502;22;20198;-84
2022/01/27 09:48:10;;;;;;;10.90;9.37;;;;;;;18.31;44.41;98316.59;6256517;22;20170;-84
2022/01/27 09:51:11;;;;;;;11.23;9.90;;;;;;;18.74;44.46;98392.00;6290954;22;20182;-85
2022/01/27 09:53:24;;;;;;;11.80;9.37;;;;;;;18.72;44.65;98385.94;6289170;22;20227;-83
2022/01/27 09:55:50;;;;;;;12.40;10.43;;;;;;;18.69;44.48;98379.03;6307550;22;20222;-83
2022/01/27 09:58:18;;;;;;;10.57;9.23;;;;;;;18.84;44.77;98405.31;6257429;22;20210;-83
2022/01/27 10:00:44;;;;;;;11.33;9.57;;;;;;;18.72;44.34;98394.47;6282195;22;20178;-84
2022/01/27 10:03:16;;;;;;;11.53;8.90;;;;;;;18.74;44.71;98397.94;6258804;22;20181;-84
2022/01/27 10:05:43;;;;;;;10.83;9.57;;;;;;;18.62;44.44;98366.72;6306926;22;20194;-86
2022/01/27 10:08:17;;;;;;;14.00;9.87;;;;;;;18.91;44.57;98420.09;6281271;22;20174;-84
2022/01/27 10:10:48;;;;;;;11.60;10.20;;;;;;;18.70;44.67;98387.50;6308075;22;20241;-85
2022/01/27 10:13:36;;;;;;;10.63;9.53;;;;;;;18.90;44.69;98418.38;6256792;22;20316;-85
2022/01/27 10:16:03;;;;;;;13.20;10.57;;;;;;;18.77;44.92;98394.72;6283413;22;20229;-86
2022/01/27 10:18:35;;;;;;;13.47;10.17;;;;;;;18.66;44.50;98377.97;6282245;22;20175;-85
2022/01/27 10:21:06;;;;;;;11.33;9.40;;;;;;;18.73;44.48;98390.22;6283853;22;20154;-86
2022/01/27 10:23:37;;;;;;;10.73;9.63;;;;;;;18.41;44.47;98329.09;6283085;22;20182;-85
2022/01/27 10:26:13;;;;;;;10.53;9.40;;;;;;;18.70;44.89;98380.75;6282751;22;20252;-87
2022/01/27 10:28:57;;;;;;;11.53;9.97;;;;;;;18.68;44.76;98378.94;6259700;22;20186;-86
2022/01/27 10:31:25;;;;;;;12.40;10.77;;;;;;;18.76;44.52;98401.47;6287334;22;20472;-88
2022/01/27 10:33:53;;;;;;;14.23;10.13;;;;;;;18.70;44.57;98393.50;6257087;22;20178;-84
2022/01/27 10:36:27;;;;;;;12.83;10.13;;;;;;;18.51;44.41;98357.66;6282743;22;20233;-85
2022/01/27 10:39:05;;;;;;;11.87;10.10;;;;;;;18.70;44.53;98382.41;6257286;22;20169;-84
2022/01/27 10:41:33;;;;;;;11.87;10.30;;;;;;;18.65;44.26;98378.78;6258808;22;20213;-85
2022/01/27 10:44:16;;;;;;;12.20;10.13;;;;;;;18.82;44.31;98406.00;6257350;22;20186;-85
2022/01/27 10:47:10;;;;;;;12.93;9.93;;;;;;;18.81;44.50;98404.25;6333584;22;20163;-86
2022/01/27 10:49:42;;;;;;;11.27;10.07;;;;;;;18.33;44.44;98315.91;6282989;22;20159;-87
2022/01/27 10:52:13;;;;;;;10.00;8.93;;;;;;;18.60;44.53;98364.91;6258461;22;20189;-85
2022/01/27 10:54:48;;;;;;;11.53;9.83;;;;;;;18.56;44.66;98351.13;6257244;22;20265;-86
2022/01/27 10:57:14;;;;;;;10.87;9.33;;;;;;;18.77;44.54;98403.19;6260123;22;20162;-85
2022/01/27 10:59:41;;;;;;;10.97;9.17;;;;;;;18.53;44.73;98358.59;6282171;22;20558;-85
2022/01/27 11:02:12;;;;;;;15.23;11.90;;;;;;;18.53;43.51;98353.50;6256650;22;20272;-85
2022/01/27 11:04:43;;;;;;;12.03;10.10;;;;;;;18.50;43.42;98357.56;6255342;22;20190;-91
2022/01/27 11:07:11;;;;;;;11.77;10.57;;;;;;;18.52;43.69;98353.44;6256607;22;20206;-84
2022/01/27 11:09:41;;;;;;;13.63;9.57;;;;;;;18.12;43.87;98285.06;6256225;22;20535;-84
2022/01/27 11:12:13;;;;;;;11.60;10.10;;;;;;;18.31;44.00;98309.84;6258933;22;20193;-83
2022/01/27 11:14:40;;;;;;;10.63;9.43;;;;;;;18.27;44.35;98309.59;6284273;22;20677;-84
2022/01/27 11:17:09;;;;;;;12.87;10.37;;;;;;;18.66;44.34;98371.22;6258347;22;20193;-84
2022/01/27 11:22:42;;;;;;;16.27;11.40;;;;;;;18.48;42.92;98332.03;6282650;22;20258;-85
2022/01/27 11:25:49;;;;;;;14.00;11.53;;;;;;;18.71;43.39;98377.41;6290820;22;20197;-83
2022/01/27 12:00:11;;;;;;;11.97;9.83;;;;;;;18.72;44.20;98373.22;6298923;22;20706;-84
2022/01/27 12:02:56;;;;;;;10.67;9.13;;;;;;;18.72;44.12;98371.53;6308151;22;20204;-85
2022/01/27 12:05:24;;;;;;;11.47;9.40;;;;;;;18.41;43.99;98309.59;6308079;22;20262;-85
2022/01/27 12:08:09;;;;;;;13.27;9.33;;;;;;;18.75;43.99;98363.19;6283187;22;20235;-85
2022/01/27 12:10:46;;;;;;;10.30;9.20;;;;;;;18.61;44.23;98336.09;6335826;22;20154;-84
2022/01/27 13:01:56;;;;;;;9.47;8.47;;;;;;;18.55;43.94;98259.41;6251433;22;20570;-87
2022/01/27 13:04:26;;;;;;;11.80;8.50;;;;;;;18.74;43.93;98285.91;6256438;22;20193;-86
2022/01/27 13:06:54;;;;;;;9.97;8.30;;;;;;;18.64;43.92;98258.22;6282433;22;20511;-86
2022/01/27 13:09:21;;;;;;;10.53;8.17;;;;;;;18.72;44.04;98256.97;6257115;22;20189;-86
2022/01/27 13:11:50;;;;;;;10.13;8.47;;;;;;;18.29;43.74;98181.66;6257023;22;20197;-87
2022/01/27 13:14:17;;;;;;;9.90;8.43;;;;;;;18.92;43.93;98289.41;6258441;22;20256;-87
2022/01/27 13:16:48;;;;;;;11.10;8.57;;;;;;;18.86;43.47;98280.59;6282273;22;20257;-87
2022/01/27 13:19:29;;;;;;;10.87;8.80;;;;;;;18.94;43.67;98297.13;6258651;22;20159;-87
2022/01/27 13:22:03;;;;;;;10.87;8.87;;;;;;;18.76;43.58;98263.06;6262983;22;20253;-87
2022/01/27 13:24:51;;;;;;;11.33;8.90;;;;;;;18.57;43.55;98230.72;6291062;22;20196;-87
2022/01/27 13:27:18;;;;;;;10.67;8.50;;;;;;;18.69;43.63;98253.38;6282633;22;20206;-87
2022/01/27 13:29:45;;;;;;;10.80;8.53;;;;;;;18.24;43.58;98173.78;6256904;22;20679;-86
2022/01/27 13:32:12;;;;;;;9.80;8.30;;;;;;;18.64;43.72;98242.94;6281153;22;20182;-85
2022/01/27 13:34:43;;;;;;;10.53;8.23;;;;;;;18.73;43.81;98261.25;6281773;22;20255;-87
2022/01/27 13:37:10;;;;;;;10.53;8.20;;;;;;;18.72;43.69;98259.50;6256655;22;20353;-85
2022/01/27 13:42:16;;;;;;;10.40;8.30;;;;;;;18.84;43.98;98275.41;6286247;22;20181;-87
2022/01/27 14:06:18;;;;;;;8.57;6.93;;;;;;;18.23;43.29;98146.63;6245513;22;20252;-84
2022/01/27 14:08:46;;;;;;;8.10;7.00;;;;;;;18.73;43.23;98240.00;6283022;22;20699;-85
2022/01/27 14:11:19;;;;;;;7.80;6.63;;;;;;;18.59;43.59;98218.06;6257378;22;20170;-84
2022/01/27 14:13:53;;;;;;;10.47;7.23;;;;;;;18.59;43.33;98218.06;6286321;22;20154;-83
2022/01/27 14:16:25;;;;;;;9.20;7.47;;;;;;;18.74;43.82;98244.31;6258866;22;20246;-84
2022/01/27 14:18:52;;;;;;;9.03;7.10;;;;;;;18.69;43.66;98236.44;6309054;22;20174;-85
2022/01/27 14:21:23;;;;;;;9.40;6.87;;;;;;;18.73;43.70;98238.34;6282447;22;20174;-85
2022/01/27 14:24:10;;;;;;;8.13;6.80;;;;;;;18.39;43.41;98188.16;6335006;22;20182;-85
2022/01/27 14:26:41;;;;;;;8.67;6.80;;;;;;;18.60;43.68;98217.25;6259480;22;20165;-84
2022/01/27 14:29:13;;;;;;;6.67;6.00;;;;;;;18.70;43.62;98234.75;6284610;22;20209;-84
2022/01/27 14:31:44;;;;;;;6.37;5.67;;;;;;;18.77;43.78;98245.31;6257805;22;20505;-84
2022/01/27 14:34:14;;;;;;;8.50;7.00;;;;;;;18.82;43.76;98259.19;6257206;22;20190;-85
2022/01/27 14:36:43;;;;;;;6.70;6.00;;;;;;;18.59;42.99;98218.06;6256752;22;20171;-84
2022/01/27 14:39:09;;;;;;;10.67;7.47;;;;;;;18.39;40.93;98181.41;6257382;22;20253;-87
2022/01/27 14:41:36;;;;;;;8.43;6.97;;;;;;;18.63;41.27;98219.97;6256654;22;20568;-82
2022/01/27 14:44:03;;;;;;;9.97;6.77;;;;;;;18.65;41.91;98226.03;6255910;22;20673;-85
2022/01/27 14:46:39;;;;;;;7.83;6.70;;;;;;;18.77;41.99;98250.41;6282032;22;20352;-85
2022/01/27 14:49:08;;;;;;;8.57;6.77;;;;;;;18.77;42.54;98263.16;6260829;22;20153;-85
2022/01/27 14:51:35;;;;;;;7.40;6.33;;;;;;;18.45;42.62;98197.00;6307512;22;20652;-85
2022/01/27 14:54:05;;;;;;;7.30;6.30;;;;;;;18.54;42.65;98230.56;6281465;22;20167;-86
2022/01/27 14:56:32;;;;;;;6.67;5.77;;;;;;;18.59;42.98;98233.34;6282033;22;20194;-84
2022/01/27 14:58:59;;;;;;;7.50;6.03;;;;;;;18.55;42.89;98221.22;6256851;22;20174;-85
2022/01/27 15:01:26;;;;;;;8.80;6.77;;;;;;;18.48;43.21;98203.91;6256259;22;20174;-86
2022/01/27 15:03:54;;;;;;;7.73;5.90;;;;;;;18.57;43.12;98212.91;6256956;22;20250;-86
2022/01/27 15:06:21;;;;;;;6.57;5.87;;;;;;;18.49;43.33;98206.53;6284703;22;20201;-84
2022/01/27 15:08:48;;;;;;;7.07;6.30;;;;;;;18.66;43.20;98225.22;6282086;22;20186;-84
2022/01/27 15:11:19;;;;;;;7.27;6.40;;;;;;;18.44;43.08;98179.94;6308959;22;20610;-86
2022/01/27 15:13:48;;;;;;;7.00;5.93;;;;;;;18.51;43.55;98202.41;6281208;22;20219;-84
2022/01/27 15:19:33;;;;;;;6.83;6.13;;;;;;;18.39;43.53;98175.44;6311163;22;20237;-85
2022/01/27 15:21:59;;;;;;;6.60;5.80;;;;;;;18.64;43.48;98198.78;6313923;22;20220;-84
2022/01/27 15:24:25;;;;;;;6.17;5.57;;;;;;;18.48;43.39;98168.28;6306191;22;20792;-85
2022/01/27 15:26:53;;;;;;;6.30;5.70;;;;;;;18.71;43.46;98214.44;6280759;22;20206;-86
2022/01/27 15:29:21;;;;;;;6.43;5.60;;;;;;;18.45;43.70;98166.44;6308808;22;20175;-85
2022/01/27 15:31:47;;;;;;;6.70;6.03;;;;;;;18.51;43.45;98170.97;6282920;22;20227;-85
2022/01/27 15:34:14;;;;;;;6.03;5.27;;;;;;;18.55;43.82;98177.97;6284025;22;20161;-85
2022/01/27 15:36:42;;;;;;;6.43;5.83;;;;;;;18.64;43.62;98194.59;6285070;22;20580;-85
2022/01/27 15:39:15;;;;;;;6.63;5.63;;;;;;;18.60;43.52;98184.16;6311478;22;20629;-86
2022/01/27 15:41:43;;;;;;;6.20;5.60;;;;;;;18.23;43.79;98133.00;6309704;22;20470;-84
2022/01/27 15:44:09;;;;;;;6.13;5.47;;;;;;;18.43;43.59;98164.59;6285164;22;20652;-85
2022/01/27 15:46:37;;;;;;;7.17;5.87;;;;;;;18.49;43.86;98175.09;6309968;22;20212;-84
2022/01/27 15:49:04;;;;;;;5.77;5.13;;;;;;;18.51;43.53;98183.69;6336002;22;20170;-84
2022/01/27 15:51:31;;;;;;;6.10;5.43;;;;;;;18.34;43.59;98142.06;6309436;22;20174;-84
2022/01/27 15:54:05;;;;;;;6.40;5.80;;;;;;;18.65;43.71;98188.69;6310750;22;20155;-84
2022/01/27 15:56:32;;;;;;;6.70;5.30;;;;;;;18.59;43.87;98174.78;6310179;22;20534;-84
2022/01/27 15:58:59;;;;;;;5.70;5.03;;;;;;;18.49;43.50;98159.81;6335615;22;20166;-84
2022/01/27 16:01:25;;;;;;;6.47;5.73;;;;;;;18.50;43.73;98166.69;6284292;22;20213;-84
2022/01/27 16:03:52;;;;;;;6.03;5.43;;;;;;;18.50;43.45;98172.63;6309406;22;20776;-84
2022/01/27 16:06:19;;;;;;;5.90;5.30;;;;;;;18.32;43.47;98138.56;6308655;22;20591;-84
2022/01/27 16:09:06;;;;;;;6.40;5.40;;;;;;;18.57;43.67;98186.56;6292593;22;20704;-84
2022/01/27 16:11:33;;;;;;;6.60;5.60;;;;;;;18.40;43.84;98161.91;6335795;22;20186;-83
2022/01/27 16:13:59;;;;;;;5.83;5.23;;;;;;;18.35;43.93;98159.09;6308892;22;20170;-84
2022/01/27 16:16:26;;;;;;;6.30;5.10;;;;;;;18.39;43.55;98160.16;6335578;22;20194;-83
2022/01/27 16:18:53;;;;;;;6.00;5.40;;;;;;;18.46;43.58;98172.38;6309038;22;20676;-83
2022/01/27 16:21:19;;;;;;;6.97;5.67;;;;;;;18.47;43.91;98177.56;6309478;22;20261;-84
2022/01/27 16:23:52;;;;;;;5.90;5.30;;;;;;;18.50;43.93;98179.41;6311133;22;20175;-84
2022/01/27 16:26:18;;;;;;;5.60;4.97;;;;;;;18.64;43.74;98194.59;6309449;22;20294;-85
2022/01/27 16:28:45;;;;;;;5.70;5.20;;;;;;;18.42;43.91;98157.78;6309514;22;21005;-85
2022/01/27 16:31:11;;;;;;;6.40;5.43;;;;;;;18.23;43.70;98137.25;6283778;22;20555;-84
2022/01/27 16:33:38;;;;;;;5.33;4.83;;;;;;;18.32;43.35;98132.63;6309888;22;20194;-85
2022/01/27 16:36:08;;;;;;;5.80;5.20;;;;;;;18.33;42.96;98136.91;6309714;22;20265;-86
2022/01/27 16:38:34;;;;;;;6.00;5.40;;;;;;;18.32;42.90;98140.25;6284155;22;20580;-84
2022/01/27 16:41:01;;;;;;;6.20;5.43;;;;;;;18.31;42.61;98146.13;6283792;22;20202;-84
2022/01/27 16:43:28;;;;;;;6.60;5.90;;;;;;;18.37;42.52;98143.91;6284590;22;20194;-85
2022/01/27 16:45:54;;;;;;;6.37;5.77;;;;;;;18.39;42.69;98144.91;6308964;22;20190;-84
2022/01/27 16:48:21;;;;;;;5.97;5.40;;;;;;;18.61;42.56;98206.28;6284360;22;20206;-84
2022/01/27 16:50:48;;;;;;;6.40;5.47;;;;;;;18.27;42.25;98146.78;6309602;22;20695;-84
2022/01/27 16:53:14;;;;;;;6.63;5.87;;;;;;;18.27;42.23;98151.84;6309595;22;20634;-84
2022/01/27 16:55:45;;;;;;;6.13;5.47;;;;;;;16.33;41.93;97842.44;6316013;22;20236;-89
2022/01/27 17:25:33;;;;;;;7.17;6.17;;;;;;;18.23;41.53;98119.44;6277209;22;20810;-82
2022/01/27 17:28:00;;;;;;;6.67;5.60;;;;;;;17.83;41.64;98058.84;6259053;22;20208;-83
2022/01/27 17:30:27;;;;;;;7.07;6.00;;;;;;;18.10;42.01;98105.19;6283904;22;20185;-83
2022/01/27 17:32:57;;;;;;;5.83;5.20;;;;;;;18.49;41.98;98170.88;6261452;22;20151;-83
2022/01/27 17:35:24;;;;;;;5.93;5.33;;;;;;;18.32;41.86;98140.25;6307758;22;20734;-83
2022/01/27 17:37:51;;;;;;;7.23;5.07;;;;;;;18.56;41.87;98162.75;6257654;22;20249;-83
2022/01/27 17:40:18;;;;;;;5.80;5.13;;;;;;;18.41;41.93;98140.75;6283759;22;20209;-84
2022/01/27 17:42:53;;;;;;;6.83;5.40;;;;;;;18.40;41.85;98139.88;6284058;22;20634;-84
2022/01/27 17:45:21;;;;;;;5.97;5.43;;;;;;;18.57;41.54;98161.09;6261401;22;20198;-83
2022/01/27 17:47:49;;;;;;;6.00;5.37;;;;;;;18.50;41.97;98131.06;6284105;22;20709;-83
2022/01/27 17:50:15;;;;;;;6.23;5.10;;;;;;;18.42;41.75;98117.94;6283742;22;20174;-83
2022/01/27 17:52:42;;;;;;;6.73;5.37;;;;;;;18.46;41.74;98126.59;6258988;22;20158;-84
2022/01/27 17:55:09;;;;;;;4.93;4.43;;;;;;;18.34;41.67;98103.91;6258014;22;20201;-84
2022/01/27 17:57:35;;;;;;;5.63;5.13;;;;;;;18.38;41.54;98105.84;6281282;22;20180;-83
2022/01/27 18:00:04;;;;;;;6.70;5.50;;;;;;;18.51;41.74;98128.59;6257557;22;20209;-84
2022/01/27 18:02:31;;;;;;;5.50;5.00;;;;;;;18.48;41.76;98118.25;6257915;22;20170;-83
2022/01/27 18:04:57;;;;;;;6.60;5.50;;;;;;;18.46;41.43;98119.84;6282347;22;20198;-82
2022/01/27 18:07:24;;;;;;;5.70;4.83;;;;;;;18.45;41.81;98119.75;6282728;22;20177;-82